Time,TemperatureF,DewpointF,PressureIn,WindDirection,WindDirectionDegrees,WindSpeedMPH,WindSpeedGustMPH,Humidity,HourlyPrecipIn,Conditions,Clouds,dailyrainin,SoftwareType,DateUTC
2013-10-30 00:02:00,52.6,49.0,30.28,NNW,331,0.0,-999.0,87,-99.99,,,0.00,weatherlink.com 1.10,2013-10-30 04:02:00,
2013-10-30 00:17:00,52.5,49.0,30.28,NNW,331,0.0,-999.0,87,-99.99,,,0.00,weatherlink.com 1.10,2013-10-30 04:17:00,
2013-10-30 00:32:00,52.2,49.0,30.27,NNW,331,0.0,-999.0,88,-99.99,,,0.00,weatherlink.com 1.10,2013-10-30 04:32:00,
2013-10-30 00:47:00,52.2,49.0,30.29,NNW,331,0.0,-999.0,88,-99.99,,,0.00,weatherlink.com 1.10,2013-10-30 04:47:00,
2013-10-30 01:02:00,52.0,49.0,30.29,NNW,331,0.0,-999.0,88,-99.99,,,0.00,weatherlink.com 1.10,2013-10-30 05:02:00,
2013-10-30 01:17:00,51.7,49.0,30.29,NNW,331,0.0,-999.0,89,-99.99,,,0.00,weatherlink.com 1.10,2013-10-30 05:17:00,
2013-10-30 01:32:00,51.7,49.0,30.29,NNW,331,0.0,-999.0,90,-99.99,,,0.00,weatherlink.com 1.10,2013-10-30 05:32:00,
2013-10-30 01:47:00,51.7,49.0,30.28,NNW,331,0.0,-999.0,89,-99.99,,,0.00,weatherlink.com 1.10,2013-10-30 05:47:00,
2013-10-30 02:02:00,51.7,49.0,30.28,NNW,331,0.0,-999.0,89,-99.99,,,0.00,weatherlink.com 1.10,2013-10-30 06:02:00,
2013-10-30 02:17:00,51.4,48.0,30.28,NNW,331,0.0,-999.0,89,-99.99,,,0.00,weatherlink.com 1.10,2013-10-30 06:17:00,
2013-10-30 02:32:00,51.3,49.0,30.27,NNW,331,0.0,-999.0,90,-99.99,,,0.00,weatherlink.com 1.10,2013-10-30 06:32:00,
2013-10-30 02:47:00,51.4,49.0,30.27,NNW,331,0.0,-999.0,90,-99.99,,,0.00,weatherlink.com 1.10,2013-10-30 06:47:00,
2013-10-30 03:02:00,51.6,49.0,30.27,North,355,0.0,-999.0,90,-99.99,,,0.00,weatherlink.com 1.10,2013-10-30 07:02:00,
2013-10-30 03:32:00,51.3,49.0,30.27,North,355,0.0,-999.0,90,-99.99,,,0.00,weatherlink.com 1.10,2013-10-30 07:32:00,
2013-10-30 03:47:00,51.1,48.0,30.26,North,355,0.0,-999.0,90,-99.99,,,0.00,weatherlink.com 1.10,2013-10-30 07:47:00,
2013-10-30 04:02:00,51.1,49.0,30.26,North,355,0.0,-999.0,91,-99.99,,,0.00,weatherlink.com 1.10,2013-10-30 08:02:00,
2013-10-30 04:17:00,51.1,49.0,30.25,North,355,0.0,-999.0,91,-99.99,,,0.00,weatherlink.com 1.10,2013-10-30 08:17:00,
2013-10-30 04:32:00,51.1,49.0,30.25,North,355,0.0,-999.0,91,-99.99,,,0.00,weatherlink.com 1.10,2013-10-30 08:32:00,
2013-10-30 04:47:00,51.1,49.0,30.25,North,355,0.0,-999.0,91,-99.99,,,0.00,weatherlink.com 1.10,2013-10-30 08:47:00,
2013-10-30 05:02:00,51.1,49.0,30.25,North,355,0.0,-999.0,91,-99.99,,,0.00,weatherlink.com 1.10,2013-10-30 09:02:00,
2013-10-30 05:17:00,51.1,49.0,30.25,North,355,0.0,-999.0,92,-99.99,,,0.00,weatherlink.com 1.10,2013-10-30 09:17:00,
2013-10-30 05:32:00,51.1,49.0,30.25,North,355,0.0,-999.0,92,-99.99,,,0.00,weatherlink.com 1.10,2013-10-30 09:32:00,
2013-10-30 05:47:00,51.0,49.0,30.27,ESE,122,0.0,-999.0,92,-99.99,,,0.00,weatherlink.com 1.10,2013-10-30 09:47:00,
2013-10-30 06:02:00,51.0,49.0,30.28,ESE,122,0.0,-999.0,92,-99.99,,,0.00,weatherlink.com 1.10,2013-10-30 10:02:00,
2013-10-30 06:17:00,51.3,49.0,30.28,SSE,153,2.0,-999.0,92,-99.99,,,0.00,weatherlink.com 1.10,2013-10-30 10:17:00,
2013-10-30 06:32:00,51.4,49.0,30.27,SSE,147,0.0,-999.0,92,-99.99,,,0.00,weatherlink.com 1.10,2013-10-30 10:32:00,
2013-10-30 06:47:00,51.4,50.0,30.29,SE,143,0.0,-999.0,93,-99.99,,,0.00,weatherlink.com 1.10,2013-10-30 10:47:00,
2013-10-30 07:02:00,51.6,50.0,30.28,SW,222,0.0,-999.0,93,-99.99,,,0.00,weatherlink.com 1.10,2013-10-30 11:02:00,
2013-10-30 07:17:00,51.4,50.0,30.28,SE,135,1.0,-999.0,94,-99.99,,,0.00,weatherlink.com 1.10,2013-10-30 11:17:00,
2013-10-30 07:32:00,51.3,50.0,30.29,East,93,1.0,-999.0,95,-99.99,,,0.00,weatherlink.com 1.10,2013-10-30 11:32:00,
2013-10-30 07:47:00,51.0,50.0,30.28,East,94,0.0,-999.0,96,-99.99,,,0.00,weatherlink.com 1.10,2013-10-30 11:47:00,
2013-10-30 08:02:00,51.0,50.0,30.29,South,180,0.0,-999.0,96,-99.99,,,0.00,weatherlink.com 1.10,2013-10-30 12:02:00,
2013-10-30 08:17:00,51.0,50.0,30.29,SE,132,0.0,-999.0,96,-99.99,,,0.00,weatherlink.com 1.10,2013-10-30 12:17:00,
2013-10-30 08:32:00,51.1,50.0,30.29,SE,136,0.0,-999.0,96,-99.99,,,0.00,weatherlink.com 1.10,2013-10-30 12:32:00,
2013-10-30 08:47:00,51.4,50.0,30.30,SE,139,0.0,-999.0,96,-99.99,,,0.00,weatherlink.com 1.10,2013-10-30 12:47:00,
2013-10-30 09:02:00,51.6,51.0,30.30,SE,128,1.0,-999.0,96,-99.99,,,0.00,weatherlink.com 1.10,2013-10-30 13:02:00,
2013-10-30 09:17:00,52.0,51.0,30.30,SE,135,0.0,-999.0,96,-99.99,,,0.00,weatherlink.com 1.10,2013-10-30 13:17:00,
2013-10-30 09:32:00,52.5,51.0,30.31,SE,135,0.0,-999.0,95,-99.99,,,0.00,weatherlink.com 1.10,2013-10-30 13:32:00,
2013-10-30 09:47:00,53.6,51.0,30.31,WNW,287,5.0,-999.0,92,-99.99,,,0.00,weatherlink.com 1.10,2013-10-30 13:47:00,
2013-10-30 10:02:00,54.5,52.0,30.31,NW,308,5.0,-999.0,90,-99.99,,,0.00,weatherlink.com 1.10,2013-10-30 14:02:00,
2013-10-30 10:17:00,55.3,52.0,30.30,West,260,10.0,-999.0,89,-99.99,,,0.00,weatherlink.com 1.10,2013-10-30 14:17:00,
2013-10-30 10:32:00,55.7,52.0,30.29,WNW,300,1.0,-999.0,88,-99.99,,,0.00,weatherlink.com 1.10,2013-10-30 14:32:00,
2013-10-30 10:47:00,56.0,52.0,30.29,WNW,283,4.0,-999.0,87,-99.99,,,0.00,weatherlink.com 1.10,2013-10-30 14:47:00,
2013-10-30 11:03:00,56.6,53.0,30.29,SW,235,2.0,-999.0,87,-99.99,,,0.00,weatherlink.com 1.10,2013-10-30 15:03:00,
2013-10-30 11:18:00,57.2,52.0,30.28,West,263,3.0,-999.0,84,-99.99,,,0.00,weatherlink.com 1.10,2013-10-30 15:18:00,
2013-10-30 11:33:00,57.3,53.0,30.28,West,265,4.0,-999.0,84,-99.99,,,0.00,weatherlink.com 1.10,2013-10-30 15:33:00,
2013-10-30 11:48:00,57.6,53.0,30.27,NW,304,5.0,-999.0,83,-99.99,,,0.00,weatherlink.com 1.10,2013-10-30 15:48:00,
2013-10-30 12:03:00,58.0,53.0,30.27,NNW,343,0.0,-999.0,82,-99.99,,,0.00,weatherlink.com 1.10,2013-10-30 16:03:00,
2013-10-30 12:18:00,59.3,53.0,30.27,NW,306,2.0,-999.0,80,-99.99,,,0.00,weatherlink.com 1.10,2013-10-30 16:18:00,
2013-10-30 12:33:00,59.9,54.0,30.26,West,265,8.0,-999.0,80,-99.99,,,0.00,weatherlink.com 1.10,2013-10-30 16:33:00,
2013-10-30 12:48:00,60.5,53.0,30.26,WSW,251,9.0,-999.0,77,-99.99,,,0.00,weatherlink.com 1.10,2013-10-30 16:48:00,
2013-10-30 13:03:00,60.7,53.0,30.24,WNW,296,10.0,-999.0,76,-99.99,,,0.00,weatherlink.com 1.10,2013-10-30 17:03:00,
2013-10-30 13:18:00,60.9,54.0,30.24,NW,313,5.0,-999.0,77,-99.99,,,0.00,weatherlink.com 1.10,2013-10-30 17:18:00,
2013-10-30 13:33:00,61.8,54.0,30.24,West,269,3.0,-999.0,75,-99.99,,,0.00,weatherlink.com 1.10,2013-10-30 17:33:00,
2013-10-30 13:48:00,61.5,54.0,30.23,West,261,1.0,-999.0,75,-99.99,,,0.00,weatherlink.com 1.10,2013-10-30 17:48:00,
2013-10-30 14:03:00,61.2,54.0,30.23,WNW,290,1.0,-999.0,76,-99.99,,,0.00,weatherlink.com 1.10,2013-10-30 18:03:00,
2013-10-30 14:18:00,62.1,54.0,30.22,WNW,295,5.0,-999.0,75,-99.99,,,0.00,weatherlink.com 1.10,2013-10-30 18:18:00,
2013-10-30 14:33:00,62.0,54.0,30.22,NW,309,5.0,-999.0,74,-99.99,,,0.00,weatherlink.com 1.10,2013-10-30 18:33:00,
2013-10-30 14:48:00,63.2,54.0,30.22,West,271,5.0,-999.0,71,-99.99,,,0.00,weatherlink.com 1.10,2013-10-30 18:48:00,
2013-10-30 15:03:00,63.1,53.0,30.21,West,272,1.0,-999.0,70,-99.99,,,0.00,weatherlink.com 1.10,2013-10-30 19:03:00,
2013-10-30 15:18:00,62.9,53.0,30.20,WNW,302,1.0,-999.0,71,-99.99,,,0.00,weatherlink.com 1.10,2013-10-30 19:18:00,
2013-10-30 15:33:00,62.4,53.0,30.20,SSW,209,2.0,-999.0,71,-99.99,,,0.00,weatherlink.com 1.10,2013-10-30 19:33:00,
2013-10-30 15:48:00,62.4,53.0,30.21,West,271,1.0,-999.0,72,-99.99,,,0.00,weatherlink.com 1.10,2013-10-30 19:48:00,
2013-10-30 16:03:00,62.4,52.0,30.21,West,269,0.0,-999.0,70,-99.99,,,0.00,weatherlink.com 1.10,2013-10-30 20:03:00,
2013-10-30 16:18:00,62.3,52.0,30.21,WSW,252,1.0,-999.0,70,-99.99,,,0.00,weatherlink.com 1.10,2013-10-30 20:18:00,
2013-10-30 16:33:00,62.4,53.0,30.21,West,271,0.0,-999.0,71,-99.99,,,0.00,weatherlink.com 1.10,2013-10-30 20:33:00,
2013-10-30 16:48:00,62.1,53.0,30.21,WNW,286,0.0,-999.0,72,-99.99,,,0.00,weatherlink.com 1.10,2013-10-30 20:48:00,
2013-10-30 17:03:00,61.8,54.0,30.21,WNW,286,0.0,-999.0,76,-99.99,,,0.00,weatherlink.com 1.10,2013-10-30 21:03:00,
2013-10-30 17:18:00,61.3,54.0,30.21,WNW,286,0.0,-999.0,77,-99.99,,,0.00,weatherlink.com 1.10,2013-10-30 21:18:00,
2013-10-30 17:33:00,60.9,54.0,30.22,WNW,286,0.0,-999.0,78,-99.99,,,0.00,weatherlink.com 1.10,2013-10-30 21:33:00,
2013-10-30 17:48:00,60.4,54.0,30.22,WNW,286,0.0,-999.0,79,-99.99,,,0.00,weatherlink.com 1.10,2013-10-30 21:48:00,
2013-10-30 18:03:00,60.1,54.0,30.23,WNW,286,0.0,-999.0,79,-99.99,,,0.00,weatherlink.com 1.10,2013-10-30 22:03:00,
2013-10-30 18:18:00,59.9,53.0,30.23,WNW,286,0.0,-999.0,79,-99.99,,,0.00,weatherlink.com 1.10,2013-10-30 22:18:00,
2013-10-30 18:33:00,59.8,53.0,30.23,WNW,286,0.0,-999.0,79,-99.99,,,0.00,weatherlink.com 1.10,2013-10-30 22:33:00,
2013-10-30 18:48:00,59.6,53.0,30.23,WNW,286,0.0,-999.0,79,-99.99,,,0.00,weatherlink.com 1.10,2013-10-30 22:48:00,
2013-10-30 19:03:00,59.5,53.0,30.24,WNW,286,0.0,-999.0,79,-99.99,,,0.00,weatherlink.com 1.10,2013-10-30 23:03:00,
2013-10-30 19:18:00,59.3,53.0,30.25,WNW,286,0.0,-999.0,79,-99.99,,,0.00,weatherlink.com 1.10,2013-10-30 23:18:00,
2013-10-30 19:33:00,59.3,53.0,30.25,WNW,286,0.0,-999.0,80,-99.99,,,0.00,weatherlink.com 1.10,2013-10-30 23:33:00,
2013-10-30 19:48:00,59.3,53.0,30.25,WNW,286,0.0,-999.0,80,-99.99,,,0.00,weatherlink.com 1.10,2013-10-30 23:48:00,
2013-10-30 20:03:00,59.3,53.0,30.26,WNW,286,0.0,-999.0,80,-99.99,,,0.00,weatherlink.com 1.10,2013-10-31 00:03:00,
2013-10-30 20:18:00,59.3,53.0,30.25,WNW,286,0.0,-999.0,80,-99.99,,,0.00,weatherlink.com 1.10,2013-10-31 00:18:00,
2013-10-30 20:33:00,59.3,53.0,30.25,WNW,286,0.0,-999.0,79,-99.99,,,0.00,weatherlink.com 1.10,2013-10-31 00:33:00,
2013-10-30 20:48:00,59.3,53.0,30.25,WNW,286,0.0,-999.0,80,-99.99,,,0.00,weatherlink.com 1.10,2013-10-31 00:48:00,
2013-10-30 21:03:00,59.3,53.0,30.25,WNW,286,0.0,-999.0,79,-99.99,,,0.00,weatherlink.com 1.10,2013-10-31 01:03:00,
2013-10-30 21:18:00,59.2,53.0,30.25,WNW,286,0.0,-999.0,80,-99.99,,,0.00,weatherlink.com 1.10,2013-10-31 01:18:00,
2013-10-30 21:33:00,59.0,53.0,30.25,WNW,286,0.0,-999.0,80,-99.99,,,0.00,weatherlink.com 1.10,2013-10-31 01:33:00,
2013-10-30 21:48:00,58.9,53.0,30.23,WNW,286,0.0,-999.0,81,-99.99,,,0.00,weatherlink.com 1.10,2013-10-31 01:48:00,
2013-10-30 22:03:00,58.7,53.0,30.23,WNW,286,0.0,-999.0,81,-99.99,,,0.00,weatherlink.com 1.10,2013-10-31 02:03:00,
2013-10-30 22:18:00,58.4,53.0,30.23,WNW,286,0.0,-999.0,83,-99.99,,,0.00,weatherlink.com 1.10,2013-10-31 02:18:00,
2013-10-30 22:33:00,58.1,53.0,30.24,WNW,286,0.0,-999.0,83,-99.99,,,0.00,weatherlink.com 1.10,2013-10-31 02:33:00,
2013-10-30 22:48:00,58.0,53.0,30.23,WNW,286,0.0,-999.0,84,-99.99,,,0.00,weatherlink.com 1.10,2013-10-31 02:48:00,
2013-10-30 23:03:00,57.8,53.0,30.23,WNW,286,0.0,-999.0,84,-99.99,,,0.00,weatherlink.com 1.10,2013-10-31 03:03:00,
2013-10-30 23:18:00,57.8,53.0,30.23,SSE,165,0.0,-999.0,85,-99.99,,,0.00,weatherlink.com 1.10,2013-10-31 03:18:00,
2013-10-30 23:33:00,57.6,53.0,30.23,South,189,0.0,-999.0,85,-99.99,,,0.00,weatherlink.com 1.10,2013-10-31 03:33:00,
2013-10-30 23:48:00,57.3,53.0,30.21,South,189,0.0,-999.0,86,-99.99,,,0.00,weatherlink.com 1.10,2013-10-31 03:48:00,